DFOO/BOY METAR and TAF weather

Enter ICAO airport designator
Station Type Date Time Source
DFOO METAR 2022/11/30 23:00 UTC NOAA

DFOO 302300Z 20004KT 8000 NSC 25/20 Q1011


Station Type Date Time Source
DFOO Decoded METAR 2022/11/30 23:00 UTC NOAA

Bobo-Dioulasso, Burkina Faso (DFOO) 11-10N 004-19W 460M
Nov 30, 2022 - 06:00 PM EST / 2022.11.30 2300 UTC
Wind: from the SSW (200 degrees) at 5 MPH (4 KT):0
Visibility: 4 mile(s):0
Temperature: 77 F (25 C)
Dew Point: 68 F (20 C)
Relative Humidity: 73%
Pressure (altimeter): 29.85 in. Hg (1011 hPa)
ob: DFOO 302300Z 20004KT 8000 NSC 25/20 Q1011
cycle: 23

Station Type Date Time Source
DFOO TAF 2022/11/30 18:07 UTC NOAA

TAF DFOO 301700Z 3018/0118 VRB08KT CAVOK
TEMPO 0106/0110 4000 HZ

Example: see airport list